sensor_id;sensor_type;location;lat;lon;timestamp;pressure;altitude;pressure_sealevel;temperature;humidity
13041;BME280;6587;42.728;23.288;2022-07-17T00:01:12;95507.63;;;21.69;98.30
13041;BME280;6587;42.728;23.288;2022-07-17T00:03:39;95515.28;;;21.69;98.14
13041;BME280;6587;42.728;23.288;2022-07-17T00:06:06;95523.28;;;21.81;97.71
13041;BME280;6587;42.728;23.288;2022-07-17T00:08:33;95524.91;;;21.60;98.57
13041;BME280;6587;42.728;23.288;2022-07-17T00:11:00;95512.63;;;21.48;98.86
13041;BME280;6587;42.728;23.288;2022-07-17T00:13:28;95525.00;;;21.59;99.14
13041;BME280;6587;42.728;23.288;2022-07-17T00:15:55;95521.00;;;21.52;99.49
13041;BME280;6587;42.728;23.288;2022-07-17T00:18:22;95515.06;;;21.51;99.01
13041;BME280;6587;42.728;23.288;2022-07-17T00:20:49;95526.31;;;21.46;99.84
13041;BME280;6587;42.728;23.288;2022-07-17T00:23:16;95529.13;;;21.14;100.00
13041;BME280;6587;42.728;23.288;2022-07-17T00:25:44;95525.56;;;21.19;100.00
13041;BME280;6587;42.728;23.288;2022-07-17T00:28:12;95529.28;;;21.10;100.00
13041;BME280;6587;42.728;23.288;2022-07-17T00:30:40;95523.09;;;20.92;100.00
13041;BME280;6587;42.728;23.288;2022-07-17T00:33:07;95532.72;;;21.09;100.00
13041;BME280;6587;42.728;23.288;2022-07-17T00:35:34;95532.59;;;21.12;100.00
13041;BME280;6587;42.728;23.288;2022-07-17T00:38:01;95528.50;;;21.08;100.00
13041;BME280;6587;42.728;23.288;2022-07-17T00:40:29;95534.03;;;21.21;100.00
13041;BME280;6587;42.728;23.288;2022-07-17T00:42:56;95538.41;;;21.17;100.00
13041;BME280;6587;42.728;23.288;2022-07-17T00:45:23;95540.25;;;21.12;100.00
13041;BME280;6587;42.728;23.288;2022-07-17T00:47:53;95531.41;;;21.22;100.00
13041;BME280;6587;42.728;23.288;2022-07-17T00:52:48;95546.38;;;21.31;100.00
13041;BME280;6587;42.728;23.288;2022-07-17T00:55:16;95551.19;;;21.41;99.71
13041;BME280;6587;42.728;23.288;2022-07-17T00:57:45;95547.91;;;21.37;99.29
13041;BME280;6587;42.728;23.288;2022-07-17T01:00:13;95548.72;;;21.39;99.01
13041;BME280;6587;42.728;23.288;2022-07-17T01:02:44;95556.19;;;21.44;99.28
13041;BME280;6587;42.728;23.288;2022-07-17T01:05:13;95552.81;;;21.43;100.00
13041;BME280;6587;42.728;23.288;2022-07-17T01:07:40;95547.25;;;21.30;100.00
13041;BME280;6587;42.728;23.288;2022-07-17T01:10:08;95547.13;;;21.35;100.00
13041;BME280;6587;42.728;23.288;2022-07-17T01:12:35;95534.06;;;21.19;100.00
13041;BME280;6587;42.728;23.288;2022-07-17T01:15:04;95548.91;;;21.31;100.00
13041;BME280;6587;42.728;23.288;2022-07-17T01:17:32;95532.50;;;21.15;100.00
13041;BME280;6587;42.728;23.288;2022-07-17T01:20:00;95548.47;;;20.95;100.00
13041;BME280;6587;42.728;23.288;2022-07-17T01:22:29;95543.81;;;21.08;100.00
13041;BME280;6587;42.728;23.288;2022-07-17T01:24:56;95534.84;;;21.21;99.65
13041;BME280;6587;42.728;23.288;2022-07-17T01:27:23;95532.88;;;21.28;98.79
13041;BME280;6587;42.728;23.288;2022-07-17T01:29:50;95539.53;;;21.33;99.46
13041;BME280;6587;42.728;23.288;2022-07-17T01:32:17;95528.34;;;21.12;100.00
13041;BME280;6587;42.728;23.288;2022-07-17T01:34:44;95540.88;;;21.19;100.00
13041;BME280;6587;42.728;23.288;2022-07-17T01:37:11;95554.28;;;21.00;100.00
13041;BME280;6587;42.728;23.288;2022-07-17T01:39:39;95554.72;;;20.88;100.00
13041;BME280;6587;42.728;23.288;2022-07-17T01:42:22;95537.13;;;20.54;100.00
13041;BME280;6587;42.728;23.288;2022-07-17T01:44:50;95542.78;;;20.63;100.00
13041;BME280;6587;42.728;23.288;2022-07-17T01:47:17;95540.25;;;20.62;100.00
13041;BME280;6587;42.728;23.288;2022-07-17T01:49:45;95540.63;;;20.76;100.00
13041;BME280;6587;42.728;23.288;2022-07-17T01:52:12;95546.72;;;20.72;100.00
13041;BME280;6587;42.728;23.288;2022-07-17T01:54:40;95544.34;;;20.66;100.00
13041;BME280;6587;42.728;23.288;2022-07-17T01:57:08;95537.59;;;20.65;100.00
13041;BME280;6587;42.728;23.288;2022-07-17T01:59:36;95548.28;;;20.76;100.00
13041;BME280;6587;42.728;23.288;2022-07-17T02:02:04;95542.66;;;20.66;100.00
13041;BME280;6587;42.728;23.288;2022-07-17T02:04:32;95548.03;;;20.59;100.00
13041;BME280;6587;42.728;23.288;2022-07-17T02:06:59;95551.00;;;20.43;100.00
13041;BME280;6587;42.728;23.288;2022-07-17T02:09:26;95548.69;;;20.64;100.00
13041;BME280;6587;42.728;23.288;2022-07-17T02:11:55;95549.88;;;20.54;100.00
13041;BME280;6587;42.728;23.288;2022-07-17T02:14:22;95545.19;;;20.40;100.00
13041;BME280;6587;42.728;23.288;2022-07-17T02:16:50;95546.44;;;20.55;99.65
13041;BME280;6587;42.728;23.288;2022-07-17T02:19:17;95549.81;;;20.82;97.81
13041;BME280;6587;42.728;23.288;2022-07-17T02:21:44;95547.88;;;20.63;98.14
13041;BME280;6587;42.728;23.288;2022-07-17T02:24:11;95532.34;;;20.43;98.47
13041;BME280;6587;42.728;23.288;2022-07-17T02:26:38;95556.50;;;20.59;97.42
13041;BME280;6587;42.728;23.288;2022-07-17T02:29:06;95549.41;;;20.41;98.48
13041;BME280;6587;42.728;23.288;2022-07-17T02:31:33;95549.50;;;20.38;98.47
13041;BME280;6587;42.728;23.288;2022-07-17T02:34:00;95550.34;;;20.38;98.47
13041;BME280;6587;42.728;23.288;2022-07-17T02:36:27;95547.91;;;20.62;95.29
13041;BME280;6587;42.728;23.288;2022-07-17T02:38:54;95549.09;;;20.52;95.78
13041;BME280;6587;42.728;23.288;2022-07-17T02:41:21;95564.03;;;20.62;95.82
13041;BME280;6587;42.728;23.288;2022-07-17T02:43:48;95556.59;;;20.56;95.50
13041;BME280;6587;42.728;23.288;2022-07-17T02:46:16;95552.38;;;20.55;95.53
13041;BME280;6587;42.728;23.288;2022-07-17T02:48:43;95562.69;;;20.52;96.85
13041;BME280;6587;42.728;23.288;2022-07-17T02:51:12;95567.34;;;20.38;96.14
13041;BME280;6587;42.728;23.288;2022-07-17T02:53:39;95566.81;;;20.55;98.10
13041;BME280;6587;42.728;23.288;2022-07-17T02:56:06;95569.00;;;20.39;99.11
13041;BME280;6587;42.728;23.288;2022-07-17T02:58:33;95571.91;;;20.28;99.00
13041;BME280;6587;42.728;23.288;2022-07-17T03:01:00;95578.53;;;20.34;99.20
13041;BME280;6587;42.728;23.288;2022-07-17T03:03:28;95576.47;;;20.45;98.39
13041;BME280;6587;42.728;23.288;2022-07-17T03:05:55;95568.94;;;20.40;96.34
13041;BME280;6587;42.728;23.288;2022-07-17T03:08:22;95575.66;;;20.43;98.25
13041;BME280;6587;42.728;23.288;2022-07-17T03:10:49;95561.34;;;20.12;97.90
13041;BME280;6587;42.728;23.288;2022-07-17T03:13:16;95587.75;;;20.10;97.28
13041;BME280;6587;42.728;23.288;2022-07-17T03:15:43;95589.47;;;20.09;97.49
13041;BME280;6587;42.728;23.288;2022-07-17T03:18:09;95586.84;;;20.11;98.21
13041;BME280;6587;42.728;23.288;2022-07-17T03:20:38;95594.06;;;19.96;99.02
13041;BME280;6587;42.728;23.288;2022-07-17T03:23:05;95598.56;;;19.88;98.94
13041;BME280;6587;42.728;23.288;2022-07-17T03:25:32;95591.09;;;19.82;100.00
13041;BME280;6587;42.728;23.288;2022-07-17T03:27:59;95590.84;;;19.91;100.00
13041;BME280;6587;42.728;23.288;2022-07-17T03:30:26;95596.31;;;20.07;99.33
13041;BME280;6587;42.728;23.288;2022-07-17T03:32:53;95593.75;;;20.07;98.68
13041;BME280;6587;42.728;23.288;2022-07-17T03:35:19;95611.28;;;19.88;100.00
13041;BME280;6587;42.728;23.288;2022-07-17T03:37:48;95608.38;;;19.73;100.00
13041;BME280;6587;42.728;23.288;2022-07-17T03:40:15;95593.16;;;19.38;100.00
13041;BME280;6587;42.728;23.288;2022-07-17T03:42:42;95606.31;;;19.54;100.00
13041;BME280;6587;42.728;23.288;2022-07-17T03:45:10;95603.97;;;19.46;100.00
13041;BME280;6587;42.728;23.288;2022-07-17T03:47:37;95603.28;;;19.73;100.00
13041;BME280;6587;42.728;23.288;2022-07-17T03:50:04;95614.94;;;19.80;100.00
13041;BME280;6587;42.728;23.288;2022-07-17T03:52:32;95621.53;;;19.87;100.00
13041;BME280;6587;42.728;23.288;2022-07-17T03:55:00;95619.28;;;19.76;98.83
13041;BME280;6587;42.728;23.288;2022-07-17T03:57:27;95630.09;;;19.84;99.35
13041;BME280;6587;42.728;23.288;2022-07-17T03:59:54;95631.53;;;19.62;98.36
13041;BME280;6587;42.728;23.288;2022-07-17T04:02:21;95631.63;;;19.59;99.24
13041;BME280;6587;42.728;23.288;2022-07-17T04:04:48;95637.19;;;19.73;98.36
13041;BME280;6587;42.728;23.288;2022-07-17T04:07:15;95626.75;;;19.51;97.67
13041;BME280;6587;42.728;23.288;2022-07-17T04:09:55;95633.97;;;19.66;97.29
13041;BME280;6587;42.728;23.288;2022-07-17T04:12:24;95639.75;;;19.73;96.91
13041;BME280;6587;42.728;23.288;2022-07-17T04:14:51;95645.16;;;19.92;94.95
13041;BME280;6587;42.728;23.288;2022-07-17T04:17:18;95645.09;;;20.23;93.01
13041;BME280;6587;42.728;23.288;2022-07-17T04:19:45;95643.31;;;20.25;92.21
13041;BME280;6587;42.728;23.288;2022-07-17T04:22:12;95651.53;;;20.35;92.53
13041;BME280;6587;42.728;23.288;2022-07-17T04:24:39;95651.63;;;20.32;91.99
13041;BME280;6587;42.728;23.288;2022-07-17T04:27:06;95652.31;;;20.37;91.55
13041;BME280;6587;42.728;23.288;2022-07-17T04:29:35;95635.75;;;20.24;90.38
13041;BME280;6587;42.728;23.288;2022-07-17T04:32:02;95650.59;;;20.67;89.45
13041;BME280;6587;42.728;23.288;2022-07-17T04:34:30;95640.31;;;20.68;88.28
13041;BME280;6587;42.728;23.288;2022-07-17T04:36:58;95655.03;;;20.60;89.13
13041;BME280;6587;42.728;23.288;2022-07-17T04:39:25;95657.19;;;20.73;88.75
13041;BME280;6587;42.728;23.288;2022-07-17T04:41:52;95661.19;;;20.81;88.73
13041;BME280;6587;42.728;23.288;2022-07-17T04:44:19;95654.19;;;20.88;88.58
13041;BME280;6587;42.728;23.288;2022-07-17T04:46:47;95669.06;;;21.00;87.57
13041;BME280;6587;42.728;23.288;2022-07-17T04:49:14;95666.47;;;21.27;86.81
13041;BME280;6587;42.728;23.288;2022-07-17T04:51:41;95680.34;;;21.46;85.27
13041;BME280;6587;42.728;23.288;2022-07-17T04:54:08;95678.41;;;21.26;86.14
13041;BME280;6587;42.728;23.288;2022-07-17T04:56:35;95679.66;;;21.41;85.64
13041;BME280;6587;42.728;23.288;2022-07-17T04:59:02;95681.28;;;21.44;86.70
13041;BME280;6587;42.728;23.288;2022-07-17T05:01:29;95678.44;;;21.51;86.99
13041;BME280;6587;42.728;23.288;2022-07-17T05:03:57;95685.78;;;21.60;86.35
13041;BME280;6587;42.728;23.288;2022-07-17T05:06:24;95680.88;;;21.29;85.52
13041;BME280;6587;42.728;23.288;2022-07-17T05:08:51;95683.59;;;21.25;87.54
13041;BME280;6587;42.728;23.288;2022-07-17T05:11:18;95684.81;;;21.39;85.85
13041;BME280;6587;42.728;23.288;2022-07-17T05:13:45;95685.47;;;21.45;86.26
13041;BME280;6587;42.728;23.288;2022-07-17T05:16:12;95681.22;;;21.45;85.92
13041;BME280;6587;42.728;23.288;2022-07-17T05:18:39;95681.22;;;21.45;86.33
13041;BME280;6587;42.728;23.288;2022-07-17T05:21:07;95682.19;;;21.41;87.93
13041;BME280;6587;42.728;23.288;2022-07-17T05:23:34;95682.47;;;21.58;85.52
13041;BME280;6587;42.728;23.288;2022-07-17T05:26:02;95688.28;;;21.62;86.04
13041;BME280;6587;42.728;23.288;2022-07-17T05:28:29;95692.78;;;21.55;86.09
13041;BME280;6587;42.728;23.288;2022-07-17T05:30:55;95685.63;;;21.65;84.64
13041;BME280;6587;42.728;23.288;2022-07-17T05:33:22;95688.28;;;21.62;84.67
13041;BME280;6587;42.728;23.288;2022-07-17T05:35:49;95687.28;;;21.91;83.25
13041;BME280;6587;42.728;23.288;2022-07-17T05:38:17;95684.28;;;21.80;84.13
13041;BME280;6587;42.728;23.288;2022-07-17T05:40:44;95691.41;;;21.70;83.14
13041;BME280;6587;42.728;23.288;2022-07-17T05:43:11;95685.56;;;21.67;82.70
13041;BME280;6587;42.728;23.288;2022-07-17T05:45:38;95691.31;;;21.97;79.38
13041;BME280;6587;42.728;23.288;2022-07-17T05:48:06;95688.69;;;22.23;76.53
13041;BME280;6587;42.728;23.288;2022-07-17T05:50:33;95688.69;;;22.23;71.17
13041;BME280;6587;42.728;23.288;2022-07-17T05:53:00;95685.44;;;22.18;74.86
13041;BME280;6587;42.728;23.288;2022-07-17T05:55:28;95681.59;;;22.53;73.20
13041;BME280;6587;42.728;23.288;2022-07-17T05:57:55;95688.44;;;22.75;73.39
13041;BME280;6587;42.728;23.288;2022-07-17T06:00:22;95696.28;;;22.70;70.56
13041;BME280;6587;42.728;23.288;2022-07-17T06:02:49;95692.91;;;22.70;72.15
13041;BME280;6587;42.728;23.288;2022-07-17T06:05:16;95694.06;;;22.83;70.18
13041;BME280;6587;42.728;23.288;2022-07-17T06:07:43;95681.78;;;22.93;72.40
13041;BME280;6587;42.728;23.288;2022-07-17T06:10:10;95687.25;;;23.26;69.76
13041;BME280;6587;42.728;23.288;2022-07-17T06:12:38;95690.28;;;23.36;70.54
13041;BME280;6587;42.728;23.288;2022-07-17T06:15:05;95680.78;;;23.38;69.09
13041;BME280;6587;42.728;23.288;2022-07-17T06:17:33;95692.19;;;23.51;68.18
13041;BME280;6587;42.728;23.288;2022-07-17T06:20:00;95695.06;;;23.84;64.48
13041;BME280;6587;42.728;23.288;2022-07-17T06:22:27;95676.22;;;23.85;64.63
13041;BME280;6587;42.728;23.288;2022-07-17T06:24:53;95692.72;;;23.80;60.83
13041;BME280;6587;42.728;23.288;2022-07-17T06:27:20;95692.59;;;23.83;67.81
13041;BME280;6587;42.728;23.288;2022-07-17T06:29:49;95695.38;;;23.97;63.37
13041;BME280;6587;42.728;23.288;2022-07-17T06:32:16;95702.38;;;24.12;65.17
13041;BME280;6587;42.728;23.288;2022-07-17T06:34:42;95694.28;;;24.21;61.70
13041;BME280;6587;42.728;23.288;2022-07-17T06:37:09;95694.56;;;24.34;57.22
13041;BME280;6587;42.728;23.288;2022-07-17T06:39:36;95697.59;;;24.23;62.20
13041;BME280;6587;42.728;23.288;2022-07-17T06:42:03;95695.03;;;24.23;58.96
13041;BME280;6587;42.728;23.288;2022-07-17T06:44:30;95686.13;;;24.51;64.23
13041;BME280;6587;42.728;23.288;2022-07-17T06:46:58;95690.31;;;24.71;57.39
13041;BME280;6587;42.728;23.288;2022-07-17T06:49:25;95689.31;;;24.56;53.82
13041;BME280;6587;42.728;23.288;2022-07-17T06:51:52;95688.09;;;24.07;56.33
13041;BME280;6587;42.728;23.288;2022-07-17T06:54:19;95688.78;;;24.10;57.01
13041;BME280;6587;42.728;23.288;2022-07-17T06:56:50;95689.44;;;24.34;56.27
13041;BME280;6587;42.728;23.288;2022-07-17T06:59:16;95693.78;;;24.32;56.51
13041;BME280;6587;42.728;23.288;2022-07-17T07:01:43;95692.69;;;24.57;54.80
13041;BME280;6587;42.728;23.288;2022-07-17T07:04:13;95695.88;;;24.24;56.13
13041;BME280;6587;42.728;23.288;2022-07-17T07:06:40;95697.59;;;24.44;57.47
13041;BME280;6587;42.728;23.288;2022-07-17T07:09:07;95694.19;;;24.80;57.05
13041;BME280;6587;42.728;23.288;2022-07-17T07:11:34;95699.50;;;24.94;55.90
13041;BME280;6587;42.728;23.288;2022-07-17T07:14:02;95696.97;;;24.75;54.64
13041;BME280;6587;42.728;23.288;2022-07-17T07:16:29;95699.81;;;24.88;54.53
13041;BME280;6587;42.728;23.288;2022-07-17T07:18:56;95704.50;;;24.97;56.99
13041;BME280;6587;42.728;23.288;2022-07-17T07:21:25;95702.06;;;24.94;55.81
13041;BME280;6587;42.728;23.288;2022-07-17T07:23:52;95703.91;;;25.09;55.69
13041;BME280;6587;42.728;23.288;2022-07-17T07:26:19;95706.09;;;25.00;55.30
13041;BME280;6587;42.728;23.288;2022-07-17T07:28:46;95711.34;;;25.15;56.41
13041;BME280;6587;42.728;23.288;2022-07-17T07:31:13;95707.56;;;25.23;54.94
13041;BME280;6587;42.728;23.288;2022-07-17T07:33:42;95707.88;;;24.80;55.66
13041;BME280;6587;42.728;23.288;2022-07-17T07:36:09;95707.94;;;24.79;55.94
13041;BME280;6587;42.728;23.288;2022-07-17T07:38:38;95705.34;;;24.79;56.57
13041;BME280;6587;42.728;23.288;2022-07-17T07:41:05;95706.50;;;25.27;56.35
13041;BME280;6587;42.728;23.288;2022-07-17T07:43:32;95705.97;;;25.55;56.57
13041;BME280;6587;42.728;23.288;2022-07-17T07:45:58;95701.94;;;25.66;54.49
13041;BME280;6587;42.728;23.288;2022-07-17T07:48:25;95710.28;;;25.72;54.37
13041;BME280;6587;42.728;23.288;2022-07-17T07:50:52;95711.94;;;25.38;54.10
13041;BME280;6587;42.728;23.288;2022-07-17T07:53:19;95707.72;;;25.37;52.66
13041;BME280;6587;42.728;23.288;2022-07-17T07:55:47;95711.03;;;25.21;52.34
13041;BME280;6587;42.728;23.288;2022-07-17T07:58:14;95703.72;;;25.14;53.26
13041;BME280;6587;42.728;23.288;2022-07-17T08:00:44;95701.69;;;25.20;52.94
13041;BME280;6587;42.728;23.288;2022-07-17T08:03:11;95714.84;;;25.49;53.70
13041;BME280;6587;42.728;23.288;2022-07-17T08:05:38;95711.84;;;25.91;51.38
13041;BME280;6587;42.728;23.288;2022-07-17T08:08:06;95713.88;;;26.18;51.02
13041;BME280;6587;42.728;23.288;2022-07-17T08:10:33;95716.75;;;26.45;51.42
13041;BME280;6587;42.728;23.288;2022-07-17T08:13:01;95718.50;;;26.45;50.27
13041;BME280;6587;42.728;23.288;2022-07-17T08:15:28;95707.00;;;26.52;49.45
13041;BME280;6587;42.728;23.288;2022-07-17T08:17:55;95710.44;;;26.35;48.86
13041;BME280;6587;42.728;23.288;2022-07-17T08:20:22;95711.91;;;26.07;51.08
13041;BME280;6587;42.728;23.288;2022-07-17T08:22:49;95699.56;;;26.46;50.11
13041;BME280;6587;42.728;23.288;2022-07-17T08:25:16;95715.81;;;26.30;48.89
13041;BME280;6587;42.728;23.288;2022-07-17T08:27:44;95707.22;;;26.95;47.39
13041;BME280;6587;42.728;23.288;2022-07-17T08:30:13;95707.41;;;26.60;48.45
13041;BME280;6587;42.728;23.288;2022-07-17T08:32:41;95710.81;;;26.76;49.40
13041;BME280;6587;42.728;23.288;2022-07-17T08:35:08;95714.41;;;26.25;48.91
13041;BME280;6587;42.728;23.288;2022-07-17T08:37:45;95713.16;;;26.32;50.18
13041;BME280;6587;42.728;23.288;2022-07-17T08:40:18;95707.44;;;26.11;49.74
13041;BME280;6587;42.728;23.288;2022-07-17T08:42:45;95706.38;;;26.31;50.04
13041;BME280;6587;42.728;23.288;2022-07-17T08:45:13;95711.97;;;26.71;49.34
13041;BME280;6587;42.728;23.288;2022-07-17T08:47:40;95700.81;;;27.02;49.67
13041;BME280;6587;42.728;23.288;2022-07-17T08:50:08;95689.78;;;27.30;46.82
13041;BME280;6587;42.728;23.288;2022-07-17T08:52:36;95690.22;;;27.67;47.07
13041;BME280;6587;42.728;23.288;2022-07-17T08:55:04;95692.41;;;27.44;47.38
13041;BME280;6587;42.728;23.288;2022-07-17T08:57:37;95686.97;;;27.34;46.41
13041;BME280;6587;42.728;23.288;2022-07-17T09:00:06;95681.91;;;27.47;46.24
13041;BME280;6587;42.728;23.288;2022-07-17T09:02:35;95682.56;;;27.51;45.59
13041;BME280;6587;42.728;23.288;2022-07-17T09:05:02;95687.19;;;27.60;47.08
13041;BME280;6587;42.728;23.288;2022-07-17T09:07:28;95684.38;;;27.49;47.52
13041;BME280;6587;42.728;23.288;2022-07-17T09:09:56;95682.72;;;28.06;46.30
13041;BME280;6587;42.728;23.288;2022-07-17T09:12:25;95677.44;;;28.51;45.54
13041;BME280;6587;42.728;23.288;2022-07-17T09:14:53;95681.47;;;28.82;45.41
13041;BME280;6587;42.728;23.288;2022-07-17T09:17:19;95687.13;;;28.74;43.69
13041;BME280;6587;42.728;23.288;2022-07-17T09:19:49;95684.81;;;29.11;43.19
13041;BME280;6587;42.728;23.288;2022-07-17T09:22:18;95678.94;;;28.68;41.86
13041;BME280;6587;42.728;23.288;2022-07-17T09:24:47;95681.16;;;28.74;43.56
13041;BME280;6587;42.728;23.288;2022-07-17T09:27:27;95672.63;;;29.13;41.54
13041;BME280;6587;42.728;23.288;2022-07-17T09:29:56;95673.66;;;29.63;40.60
13041;BME280;6587;42.728;23.288;2022-07-17T09:32:25;95682.44;;;29.86;40.72
13041;BME280;6587;42.728;23.288;2022-07-17T09:34:55;95675.38;;;29.50;41.08
13041;BME280;6587;42.728;23.288;2022-07-17T09:37:22;95667.16;;;29.70;39.98
13041;BME280;6587;42.728;23.288;2022-07-17T09:39:50;95677.88;;;29.64;39.63
13041;BME280;6587;42.728;23.288;2022-07-17T09:42:24;95676.00;;;29.54;39.82
13041;BME280;6587;42.728;23.288;2022-07-17T09:44:56;95676.34;;;29.09;41.57
13041;BME280;6587;42.728;23.288;2022-07-17T09:47:23;95679.63;;;29.11;39.44
13041;BME280;6587;42.728;23.288;2022-07-17T09:49:54;95682.69;;;29.43;38.69
13041;BME280;6587;42.728;23.288;2022-07-17T09:52:23;95679.31;;;29.94;39.12
13041;BME280;6587;42.728;23.288;2022-07-17T09:54:52;95680.22;;;30.44;39.28
13041;BME280;6587;42.728;23.288;2022-07-17T09:57:24;95672.25;;;30.95;37.30
13041;BME280;6587;42.728;23.288;2022-07-17T09:59:53;95686.41;;;30.41;36.92
13041;BME280;6587;42.728;23.288;2022-07-17T10:02:21;95680.97;;;29.95;38.63
13041;BME280;6587;42.728;23.288;2022-07-17T10:04:48;95677.88;;;29.64;39.33
13041;BME280;6587;42.728;23.288;2022-07-17T10:07:17;95673.59;;;29.50;39.55
13041;BME280;6587;42.728;23.288;2022-07-17T10:09:44;95682.03;;;29.92;39.37
13041;BME280;6587;42.728;23.288;2022-07-17T10:12:12;95681.72;;;29.97;39.47
13041;BME280;6587;42.728;23.288;2022-07-17T10:14:40;95674.91;;;30.82;37.74
13041;BME280;6587;42.728;23.288;2022-07-17T10:17:08;95670.91;;;31.13;36.80
13041;BME280;6587;42.728;23.288;2022-07-17T10:19:44;95664.66;;;31.05;37.09
13041;BME280;6587;42.728;23.288;2022-07-17T10:22:13;95655.75;;;31.20;34.46
13041;BME280;6587;42.728;23.288;2022-07-17T10:24:46;95662.41;;;30.14;35.91
13041;BME280;6587;42.728;23.288;2022-07-17T10:27:19;95666.78;;;30.26;37.91
13041;BME280;6587;42.728;23.288;2022-07-17T10:29:57;95643.63;;;30.49;36.37
13041;BME280;6587;42.728;23.288;2022-07-17T10:32:25;95653.19;;;30.96;35.74
13041;BME280;6587;42.728;23.288;2022-07-17T10:34:53;95649.78;;;31.31;35.94
13041;BME280;6587;42.728;23.288;2022-07-17T10:37:23;95657.41;;;31.79;35.21
13041;BME280;6587;42.728;23.288;2022-07-17T10:40:00;95652.50;;;31.05;36.55
13041;BME280;6587;42.728;23.288;2022-07-17T10:42:46;95653.88;;;30.74;37.29
13041;BME280;6587;42.728;23.288;2022-07-17T10:45:15;95648.16;;;31.06;36.06
13041;BME280;6587;42.728;23.288;2022-07-17T10:47:44;95648.25;;;31.97;35.57
13041;BME280;6587;42.728;23.288;2022-07-17T10:50:12;95640.75;;;32.38;34.27
13041;BME280;6587;42.728;23.288;2022-07-17T10:52:39;95645.47;;;31.54;34.38
13041;BME280;6587;42.728;23.288;2022-07-17T10:55:19;95649.44;;;31.11;35.42
13041;BME280;6587;42.728;23.288;2022-07-17T10:57:47;95642.47;;;30.53;35.58
13041;BME280;6587;42.728;23.288;2022-07-17T11:00:15;95640.56;;;30.91;35.82
13041;BME280;6587;42.728;23.288;2022-07-17T11:02:42;95629.75;;;30.98;35.33
13041;BME280;6587;42.728;23.288;2022-07-17T11:05:10;95629.84;;;30.48;35.91
13041;BME280;6587;42.728;23.288;2022-07-17T11:07:49;95641.84;;;31.68;35.95
13041;BME280;6587;42.728;23.288;2022-07-17T11:10:17;95632.00;;;31.37;35.97
13041;BME280;6587;42.728;23.288;2022-07-17T11:12:44;95625.44;;;31.67;34.94
13041;BME280;6587;42.728;23.288;2022-07-17T11:15:11;95629.78;;;32.45;34.21
13041;BME280;6587;42.728;23.288;2022-07-17T11:17:44;95629.31;;;32.83;34.58
13041;BME280;6587;42.728;23.288;2022-07-17T11:20:11;95628.72;;;33.33;34.23
13041;BME280;6587;42.728;23.288;2022-07-17T11:22:38;95625.66;;;32.43;34.14
13041;BME280;6587;42.728;23.288;2022-07-17T11:25:06;95608.03;;;30.87;35.24
13041;BME280;6587;42.728;23.288;2022-07-17T11:27:35;95625.59;;;30.71;36.15
13041;BME280;6587;42.728;23.288;2022-07-17T11:30:04;95613.06;;;31.13;35.56
13041;BME280;6587;42.728;23.288;2022-07-17T11:32:33;95622.41;;;31.96;34.45
13041;BME280;6587;42.728;23.288;2022-07-17T11:35:00;95617.81;;;31.99;34.85
13041;BME280;6587;42.728;23.288;2022-07-17T11:37:29;95620.47;;;31.53;34.10
13041;BME280;6587;42.728;23.288;2022-07-17T11:39:57;95617.44;;;31.70;35.29
13041;BME280;6587;42.728;23.288;2022-07-17T11:42:24;95612.94;;;31.72;34.88
13041;BME280;6587;42.728;23.288;2022-07-17T11:44:55;95608.69;;;32.16;35.37
13041;BME280;6587;42.728;23.288;2022-07-17T11:47:23;95608.59;;;32.18;34.28
13041;BME280;6587;42.728;23.288;2022-07-17T11:49:52;95605.16;;;32.93;33.86
13041;BME280;6587;42.728;23.288;2022-07-17T11:52:40;95598.81;;;33.18;33.19
13041;BME280;6587;42.728;23.288;2022-07-17T11:55:07;95608.34;;;31.76;35.26
13041;BME280;6587;42.728;23.288;2022-07-17T11:57:42;95597.03;;;31.88;35.62
13041;BME280;6587;42.728;23.288;2022-07-17T12:00:12;95599.63;;;31.19;36.05
13041;BME280;6587;42.728;23.288;2022-07-17T12:02:39;95597.28;;;31.16;35.83
13041;BME280;6587;42.728;23.288;2022-07-17T12:05:07;95604.63;;;31.33;36.13
13041;BME280;6587;42.728;23.288;2022-07-17T12:07:44;95596.50;;;32.50;33.82
13041;BME280;6587;42.728;23.288;2022-07-17T12:10:13;95598.94;;;32.95;34.20
13041;BME280;6587;42.728;23.288;2022-07-17T12:12:51;95600.34;;;32.01;35.43
13041;BME280;6587;42.728;23.288;2022-07-17T12:15:20;95592.19;;;31.95;35.28
13041;BME280;6587;42.728;23.288;2022-07-17T12:17:47;95591.00;;;32.21;35.69
13041;BME280;6587;42.728;23.288;2022-07-17T12:20:14;95590.63;;;32.69;35.15
13041;BME280;6587;42.728;23.288;2022-07-17T12:22:43;95589.00;;;32.68;35.08
13041;BME280;6587;42.728;23.288;2022-07-17T12:25:21;95589.94;;;32.12;35.06
13041;BME280;6587;42.728;23.288;2022-07-17T12:27:48;95591.56;;;32.25;36.01
13041;BME280;6587;42.728;23.288;2022-07-17T12:30:16;95581.09;;;32.58;35.38
13041;BME280;6587;42.728;23.288;2022-07-17T12:32:44;95575.34;;;31.89;36.68
13041;BME280;6587;42.728;23.288;2022-07-17T12:35:12;95589.22;;;32.22;36.70
13041;BME280;6587;42.728;23.288;2022-07-17T12:37:39;95588.59;;;32.29;37.36
13041;BME280;6587;42.728;23.288;2022-07-17T12:40:07;95583.66;;;32.26;36.49
13041;BME280;6587;42.728;23.288;2022-07-17T12:42:34;95593.00;;;32.18;37.17
13041;BME280;6587;42.728;23.288;2022-07-17T12:45:01;95587.25;;;32.03;37.64
13041;BME280;6587;42.728;23.288;2022-07-17T12:47:28;95588.88;;;31.59;37.88
13041;BME280;6587;42.728;23.288;2022-07-17T12:49:56;95590.53;;;32.05;38.16
13041;BME280;6587;42.728;23.288;2022-07-17T12:52:23;95596.16;;;31.31;39.85
13041;BME280;6587;42.728;23.288;2022-07-17T12:54:50;95596.09;;;30.61;40.18
13041;BME280;6587;42.728;23.288;2022-07-17T12:57:17;95598.22;;;31.26;39.24
13041;BME280;6587;42.728;23.288;2022-07-17T12:59:44;95592.50;;;30.87;39.79
13041;BME280;6587;42.728;23.288;2022-07-17T13:02:11;95585.44;;;32.26;37.34
13041;BME280;6587;42.728;23.288;2022-07-17T13:04:38;95571.09;;;32.43;36.86